createdAt,value
2022-08-18T00:02:43.459Z,99.90
2022-08-18T00:07:55.486Z,99.90
2022-08-18T00:13:01.584Z,99.90
2022-08-18T00:18:06.336Z,99.90
2022-08-18T00:23:10.857Z,99.90
2022-08-18T00:28:16.577Z,99.90
2022-08-18T00:33:20.907Z,99.90
2022-08-18T00:38:25.764Z,99.90
2022-08-18T00:43:40.726Z,99.90
2022-08-18T00:48:48.565Z,99.90
2022-08-18T00:54:03.200Z,99.90
2022-08-18T00:59:15.209Z,99.90
2022-08-18T01:04:27.561Z,99.90
2022-08-18T01:09:31.949Z,99.90
2022-08-18T01:14:39.371Z,99.90
2022-08-18T01:20:01.361Z,99.90
2022-08-18T01:25:28.040Z,99.90
2022-08-18T01:30:45.402Z,99.90
2022-08-18T01:35:50.743Z,99.90
2022-08-18T01:41:17.333Z,99.90
2022-08-18T01:46:23.201Z,99.90
2022-08-18T01:51:39.496Z,99.90
2022-08-18T01:56:48.294Z,99.90
2022-08-18T02:01:55.611Z,99.90
2022-08-18T02:07:01.288Z,99.90
2022-08-18T02:12:10.748Z,99.90
2022-08-18T02:17:15.586Z,99.90
2022-08-18T02:22:22.283Z,99.90
2022-08-18T02:27:29.802Z,99.90
2022-08-18T02:32:35.166Z,99.90
2022-08-18T02:37:42.044Z,99.90
2022-08-18T02:42:49.842Z,99.90
2022-08-18T02:47:55.692Z,99.90
2022-08-18T02:53:00.130Z,99.90
2022-08-18T02:58:06.734Z,99.90
2022-08-18T03:03:11.226Z,99.90
2022-08-18T03:08:15.721Z,99.90
2022-08-18T03:13:21.598Z,99.90
2022-08-18T03:18:25.947Z,99.90
2022-08-18T03:23:30.552Z,99.90
2022-08-18T03:28:36.950Z,99.90
2022-08-18T03:33:42.208Z,99.90
2022-08-18T03:38:52.535Z,99.90
2022-08-18T03:44:03.015Z,99.90
2022-08-18T03:49:08.982Z,99.90
2022-08-18T03:54:15.808Z,99.90
2022-08-18T03:59:24.766Z,99.90
2022-08-18T04:04:30.204Z,99.90
2022-08-18T04:09:37.366Z,99.90
2022-08-18T04:14:46.565Z,99.90
2022-08-18T04:19:51.983Z,99.90
2022-08-18T04:24:57.988Z,99.90
2022-08-18T04:30:04.894Z,99.90
2022-08-18T04:35:14.033Z,99.90
2022-08-18T04:40:24.844Z,99.90
2022-08-18T04:45:31.646Z,99.90
2022-08-18T04:50:38.407Z,99.90
2022-08-18T04:55:49.768Z,99.90
2022-08-18T05:01:02.858Z,99.90
2022-08-18T05:06:08.384Z,99.90
2022-08-18T05:11:12.692Z,99.90
2022-08-18T05:16:27.205Z,99.90
2022-08-18T05:21:33.807Z,99.90
2022-08-18T05:26:41.899Z,99.90
2022-08-18T05:31:49.216Z,99.90
2022-08-18T05:37:12.096Z,99.90
2022-08-18T05:42:21.354Z,99.90
2022-08-18T05:47:30.886Z,99.90
2022-08-18T05:52:40.763Z,99.90
2022-08-18T05:57:53.791Z,99.90
2022-08-18T06:03:10.003Z,99.90
2022-08-18T06:08:18.183Z,99.90
2022-08-18T06:13:23.076Z,99.90
2022-08-18T06:18:44.055Z,99.90
2022-08-18T06:24:06.215Z,99.90
2022-08-18T06:29:32.473Z,99.90
2022-08-18T06:34:54.600Z,99.90
2022-08-18T06:39:59.324Z,99.90
2022-08-18T06:45:12.908Z,99.90
2022-08-18T06:50:27.840Z,99.90
2022-08-18T06:55:39.296Z,99.90
2022-08-18T07:00:57.181Z,99.90
2022-08-18T07:06:07.423Z,99.90
2022-08-18T07:11:21.396Z,99.90
2022-08-18T07:16:54.974Z,99.90
2022-08-18T07:22:08.462Z,99.90
2022-08-18T07:27:17.519Z,99.90
2022-08-18T07:32:26.867Z,99.90
2022-08-18T07:37:42.008Z,99.90
2022-08-18T07:43:01.813Z,99.90
2022-08-18T07:48:36.863Z,99.90
2022-08-18T07:53:56.832Z,99.90
2022-08-18T07:59:13.479Z,99.90
2022-08-18T08:04:37.997Z,99.90
2022-08-18T08:09:57.216Z,99.90
2022-08-18T08:15:18.347Z,99.90
2022-08-18T08:20:44.467Z,99.90
2022-08-18T08:26:18.957Z,99.90
2022-08-18T08:31:49.182Z,99.90
2022-08-18T08:37:03.137Z,99.90
2022-08-18T08:42:30.464Z,99.90
2022-08-18T08:47:46.351Z,99.90
2022-08-18T08:52:57.436Z,99.90
2022-08-18T08:58:20.927Z,99.90
2022-08-18T09:03:49.144Z,99.90
2022-08-18T09:09:28.420Z,99.90
2022-08-18T09:15:08.436Z,99.90
2022-08-18T09:20:37.408Z,99.90
2022-08-18T09:25:51.882Z,99.90
2022-08-18T09:31:19.999Z,99.90
2022-08-18T09:36:44.798Z,99.90
2022-08-18T09:41:59.591Z,99.90
2022-08-18T09:47:07.531Z,93.70
2022-08-18T09:52:50.568Z,91.40
2022-08-18T09:58:22.974Z,85.40
2022-08-18T10:03:32.443Z,66.80
2022-08-18T10:09:36.855Z,70.20
2022-08-18T10:15:32.915Z,62.80
2022-08-18T10:20:58.037Z,63.20
2022-08-18T10:26:05.125Z,63.70
2022-08-18T10:31:16.475Z,65.20
2022-08-18T10:36:46.825Z,64.80
2022-08-18T10:42:05.611Z,64.90
2022-08-18T10:47:23.353Z,66.80
2022-08-18T10:53:39.391Z,67.90
2022-08-18T10:58:53.422Z,67.80
2022-08-18T11:04:14.425Z,67.50
2022-08-18T11:09:35.649Z,66.70
2022-08-18T11:15:22.304Z,67.00
2022-08-18T11:20:33.260Z,67.80
2022-08-18T11:25:42.156Z,68.40
2022-08-18T11:30:53.704Z,67.70
2022-08-18T11:36:01.696Z,66.50
2022-08-18T11:41:23.321Z,67.00
2022-08-18T11:46:32.544Z,67.50
2022-08-18T11:52:03.498Z,65.30
2022-08-18T11:57:59.249Z,66.60
2022-08-18T12:03:32.642Z,68.10
2022-08-18T12:08:58.261Z,69.60
2022-08-18T12:14:31.819Z,72.00
2022-08-18T12:19:40.107Z,72.10
2022-08-18T12:24:46.100Z,70.90
2022-08-18T12:29:58.452Z,69.70
2022-08-18T12:35:09.205Z,69.30
2022-08-18T12:40:15.192Z,67.80
2022-08-18T12:45:21.467Z,65.10
2022-08-18T12:50:30.912Z,65.00
2022-08-18T12:55:44.179Z,64.10
2022-08-18T13:00:51.874Z,62.30
2022-08-18T13:05:56.835Z,60.00
2022-08-18T13:11:15.101Z,60.20
2022-08-18T13:16:53.409Z,60.30
2022-08-18T13:21:57.164Z,60.60
2022-08-18T13:27:04.074Z,57.90
2022-08-18T13:32:26.317Z,56.00
2022-08-18T13:37:33.302Z,54.30
2022-08-18T13:42:53.022Z,53.60
2022-08-18T13:48:02.290Z,51.70
2022-08-18T13:53:18.879Z,50.50
2022-08-18T13:58:24.171Z,50.10
2022-08-18T14:03:46.680Z,51.80
2022-08-18T14:08:57.096Z,52.90
2022-08-18T14:14:06.439Z,55.40
2022-08-18T14:19:30.151Z,56.80
2022-08-18T14:24:54.531Z,57.90
2022-08-18T14:30:07.790Z,59.10
2022-08-18T14:36:04.362Z,60.00
2022-08-18T14:40:48.128Z,60.50
2022-08-18T14:45:53.860Z,61.40
2022-08-18T14:51:04.779Z,61.70
2022-08-18T14:56:17.774Z,62.20
2022-08-18T15:01:23.243Z,62.20
2022-08-18T15:06:55.891Z,64.20
2022-08-18T15:12:02.449Z,66.20
2022-08-18T15:17:13.290Z,68.00
2022-08-18T15:22:41.592Z,69.80
2022-08-18T15:27:57.484Z,72.70
2022-08-18T15:33:05.794Z,74.20
2022-08-18T15:38:24.372Z,75.70
2022-08-18T15:43:46.100Z,77.50
2022-08-18T15:48:54.127Z,78.80
2022-08-18T15:54:03.383Z,80.00
2022-08-18T15:59:19.650Z,80.80
2022-08-18T16:04:27.209Z,81.00
2022-08-18T16:09:33.726Z,81.90
2022-08-18T16:14:41.337Z,82.90
2022-08-18T16:19:46.554Z,83.40
2022-08-18T16:24:56.073Z,83.80
2022-08-18T16:30:17.297Z,83.50
2022-08-18T16:35:23.892Z,83.50
2022-08-18T16:40:33.489Z,82.60
2022-08-18T16:45:40.471Z,82.90
2022-08-18T16:50:46.525Z,83.30
2022-08-18T16:55:52.184Z,84.60
2022-08-18T17:01:18.801Z,85.60
2022-08-18T17:06:28.668Z,85.90
2022-08-18T17:11:34.487Z,87.30
2022-08-18T17:16:55.441Z,88.60
2022-08-18T17:22:00.455Z,89.20
2022-08-18T17:27:26.575Z,90.20
2022-08-18T17:32:42.129Z,90.70
2022-08-18T17:37:53.004Z,91.20
2022-08-18T17:43:00.189Z,92.60
2022-08-18T17:48:12.451Z,93.50
2022-08-18T17:53:18.316Z,94.70
2022-08-18T17:58:39.281Z,95.70
2022-08-18T18:03:45.706Z,97.00
2022-08-18T18:08:58.101Z,98.20
2022-08-18T18:14:27.009Z,99.90
2022-08-18T18:19:33.335Z,99.90
2022-08-18T18:24:40.163Z,99.90
2022-08-18T18:29:56.345Z,99.90
2022-08-18T18:35:23.724Z,99.90
2022-08-18T18:40:37.011Z,99.90
2022-08-18T18:45:43.905Z,99.90
2022-08-18T18:51:10.389Z,99.90
2022-08-18T18:56:25.768Z,99.90
2022-08-18T19:01:45.169Z,99.90
2022-08-18T19:07:00.149Z,99.90
2022-08-18T19:12:17.296Z,99.90
2022-08-18T19:17:33.194Z,99.90
2022-08-18T19:22:47.561Z,99.90
2022-08-18T19:28:05.040Z,99.90
2022-08-18T19:33:25.939Z,99.90
2022-08-18T19:38:42.162Z,99.90
2022-08-18T19:43:57.356Z,99.90
2022-08-18T19:49:18.557Z,99.90
2022-08-18T19:54:54.979Z,99.90
2022-08-18T20:00:27.709Z,99.90
2022-08-18T20:05:52.145Z,99.90
2022-08-18T20:11:22.020Z,99.90
2022-08-18T20:17:19.740Z,99.90
2022-08-18T20:30:49.088Z,99.90
2022-08-18T20:36:44.209Z,99.90
2022-08-18T20:41:52.077Z,99.90
2022-08-18T20:47:15.025Z,99.90
2022-08-18T20:53:41.061Z,99.90
2022-08-18T21:00:28.410Z,99.90
2022-08-18T21:14:07.742Z,99.90
2022-08-18T21:19:27.938Z,99.90
2022-08-18T21:24:37.116Z,99.90
2022-08-18T21:29:49.827Z,99.90
2022-08-18T21:34:57.299Z,99.90
2022-08-18T21:40:12.720Z,99.90
2022-08-18T21:45:25.229Z,99.90
2022-08-18T21:50:32.193Z,99.90
2022-08-18T21:55:42.578Z,99.90
2022-08-18T22:01:11.834Z,99.90
2022-08-18T22:06:36.228Z,99.90
2022-08-18T22:12:01.279Z,99.90
2022-08-18T22:17:32.318Z,99.90
2022-08-18T22:22:54.155Z,99.90
2022-08-18T22:28:00.775Z,99.90
2022-08-18T22:33:06.474Z,99.90
2022-08-18T22:38:15.251Z,99.90
2022-08-18T22:43:19.696Z,99.90
2022-08-18T22:48:25.842Z,99.90
2022-08-18T22:53:31.250Z,99.90
2022-08-18T22:58:36.155Z,99.90
2022-08-18T23:03:44.987Z,99.90
2022-08-18T23:08:51.765Z,99.90
2022-08-18T23:14:00.691Z,99.90
2022-08-18T23:19:06.476Z,99.90
2022-08-18T23:24:15.349Z,99.90
2022-08-18T23:29:21.978Z,99.90
2022-08-18T23:34:27.672Z,99.90
2022-08-18T23:39:34.900Z,99.90
2022-08-18T23:44:39.246Z,99.90
2022-08-18T23:49:44.999Z,99.90
2022-08-18T23:54:49.304Z,99.90
2022-08-18T23:59:54.570Z,99.90
